sensor_id;sensor_type;location;lat;lon;timestamp;temperature;humidity
82231;DHT22;71832;45.138;9.816;2023-12-07T00:01:58;1.70;94.00
82231;DHT22;71832;45.138;9.816;2023-12-07T00:04:26;1.60;94.80
82231;DHT22;71832;45.138;9.816;2023-12-07T00:06:55;1.70;93.90
82231;DHT22;71832;45.138;9.816;2023-12-07T00:09:24;1.60;93.80
82231;DHT22;71832;45.138;9.816;2023-12-07T00:11:53;1.60;93.90
82231;DHT22;71832;45.138;9.816;2023-12-07T00:14:21;1.50;94.40
82231;DHT22;71832;45.138;9.816;2023-12-07T00:16:50;1.50;95.10
82231;DHT22;71832;45.138;9.816;2023-12-07T00:19:19;1.50;95.90
82231;DHT22;71832;45.138;9.816;2023-12-07T00:21:47;1.40;96.00
82231;DHT22;71832;45.138;9.816;2023-12-07T00:24:16;1.50;96.50
82231;DHT22;71832;45.138;9.816;2023-12-07T00:26:45;1.40;96.90
82231;DHT22;71832;45.138;9.816;2023-12-07T00:29:13;1.50;96.70
82231;DHT22;71832;45.138;9.816;2023-12-07T00:31:42;1.40;96.60
82231;DHT22;71832;45.138;9.816;2023-12-07T00:34:11;1.40;97.10
82231;DHT22;71832;45.138;9.816;2023-12-07T00:40:04;1.30;97.90
82231;DHT22;71832;45.138;9.816;2023-12-07T00:42:35;1.30;98.40
82231;DHT22;71832;45.138;9.816;2023-12-07T00:45:03;1.40;98.20
82231;DHT22;71832;45.138;9.816;2023-12-07T00:47:32;1.40;97.80
82231;DHT22;71832;45.138;9.816;2023-12-07T00:50:00;1.30;97.90
82231;DHT22;71832;45.138;9.816;2023-12-07T00:52:29;1.20;98.70
82231;DHT22;71832;45.138;9.816;2023-12-07T00:54:58;1.20;99.10
82231;DHT22;71832;45.138;9.816;2023-12-07T00:57:26;1.20;99.70
82231;DHT22;71832;45.138;9.816;2023-12-07T00:59:55;1.30;99.90
82231;DHT22;71832;45.138;9.816;2023-12-07T01:02:23;1.30;99.80
82231;DHT22;71832;45.138;9.816;2023-12-07T01:04:51;1.40;99.70
82231;DHT22;71832;45.138;9.816;2023-12-07T01:07:20;1.40;99.10
82231;DHT22;71832;45.138;9.816;2023-12-07T01:09:49;1.50;98.60
82231;DHT22;71832;45.138;9.816;2023-12-07T01:12:18;1.50;98.40
82231;DHT22;71832;45.138;9.816;2023-12-07T01:14:46;1.50;98.20
82231;DHT22;71832;45.138;9.816;2023-12-07T01:17:15;1.50;98.30
82231;DHT22;71832;45.138;9.816;2023-12-07T01:19:44;1.60;98.40
82231;DHT22;71832;45.138;9.816;2023-12-07T01:22:13;1.70;98.20
82231;DHT22;71832;45.138;9.816;2023-12-07T01:24:41;1.60;96.60
82231;DHT22;71832;45.138;9.816;2023-12-07T01:27:11;1.60;96.10
82231;DHT22;71832;45.138;9.816;2023-12-07T01:29:39;1.50;95.90
82231;DHT22;71832;45.138;9.816;2023-12-07T01:32:08;1.50;95.40
82231;DHT22;71832;45.138;9.816;2023-12-07T01:34:37;1.40;94.50
82231;DHT22;71832;45.138;9.816;2023-12-07T01:37:05;1.40;94.70
82231;DHT22;71832;45.138;9.816;2023-12-07T01:39:35;1.40;95.00
82231;DHT22;71832;45.138;9.816;2023-12-07T01:42:03;1.30;95.60
82231;DHT22;71832;45.138;9.816;2023-12-07T01:44:32;1.40;95.60
82231;DHT22;71832;45.138;9.816;2023-12-07T01:47:01;1.40;95.40
82231;DHT22;71832;45.138;9.816;2023-12-07T01:49:30;1.40;95.70
82231;DHT22;71832;45.138;9.816;2023-12-07T01:51:59;1.30;96.20
82231;DHT22;71832;45.138;9.816;2023-12-07T01:54:28;1.30;96.50
82231;DHT22;71832;45.138;9.816;2023-12-07T01:56:57;1.20;96.70
82231;DHT22;71832;45.138;9.816;2023-12-07T01:59:26;1.30;96.90
82231;DHT22;71832;45.138;9.816;2023-12-07T02:01:55;1.20;97.00
82231;DHT22;71832;45.138;9.816;2023-12-07T02:04:24;1.20;97.40
82231;DHT22;71832;45.138;9.816;2023-12-07T02:06:56;1.20;97.20
82231;DHT22;71832;45.138;9.816;2023-12-07T02:09:25;1.20;97.10
82231;DHT22;71832;45.138;9.816;2023-12-07T02:11:54;1.20;97.30
82231;DHT22;71832;45.138;9.816;2023-12-07T02:14:23;1.20;97.20
82231;DHT22;71832;45.138;9.816;2023-12-07T02:17:01;1.30;97.50
82231;DHT22;71832;45.138;9.816;2023-12-07T02:19:55;1.20;97.50
82231;DHT22;71832;45.138;9.816;2023-12-07T02:22:28;1.20;97.10
82231;DHT22;71832;45.138;9.816;2023-12-07T02:25:07;1.30;97.10
82231;DHT22;71832;45.138;9.816;2023-12-07T02:27:42;1.20;97.10
82231;DHT22;71832;45.138;9.816;2023-12-07T02:30:12;1.30;97.50
82231;DHT22;71832;45.138;9.816;2023-12-07T02:32:42;1.40;97.40
82231;DHT22;71832;45.138;9.816;2023-12-07T02:35:12;1.40;97.10
82231;DHT22;71832;45.138;9.816;2023-12-07T02:37:44;1.40;96.90
82231;DHT22;71832;45.138;9.816;2023-12-07T02:40:17;1.40;96.40
82231;DHT22;71832;45.138;9.816;2023-12-07T02:42:46;1.40;96.40
82231;DHT22;71832;45.138;9.816;2023-12-07T02:45:15;1.30;96.10
82231;DHT22;71832;45.138;9.816;2023-12-07T02:47:44;1.30;96.20
82231;DHT22;71832;45.138;9.816;2023-12-07T02:50:13;1.40;96.00
82231;DHT22;71832;45.138;9.816;2023-12-07T02:52:42;1.40;96.10
82231;DHT22;71832;45.138;9.816;2023-12-07T02:55:11;1.30;96.20
82231;DHT22;71832;45.138;9.816;2023-12-07T02:57:40;1.30;96.10
82231;DHT22;71832;45.138;9.816;2023-12-07T03:00:09;1.30;96.00
82231;DHT22;71832;45.138;9.816;2023-12-07T03:02:40;1.30;95.90
82231;DHT22;71832;45.138;9.816;2023-12-07T03:05:09;1.30;95.90
82231;DHT22;71832;45.138;9.816;2023-12-07T03:07:38;1.30;95.90
82231;DHT22;71832;45.138;9.816;2023-12-07T03:10:06;1.30;95.70
82231;DHT22;71832;45.138;9.816;2023-12-07T03:12:35;1.30;95.50
82231;DHT22;71832;45.138;9.816;2023-12-07T03:15:04;1.30;95.30
82231;DHT22;71832;45.138;9.816;2023-12-07T03:17:33;1.30;94.90
82231;DHT22;71832;45.138;9.816;2023-12-07T03:20:02;1.30;94.60
82231;DHT22;71832;45.138;9.816;2023-12-07T03:22:32;1.20;94.40
82231;DHT22;71832;45.138;9.816;2023-12-07T03:25:01;1.40;94.10
82231;DHT22;71832;45.138;9.816;2023-12-07T03:27:30;1.30;93.90
82231;DHT22;71832;45.138;9.816;2023-12-07T03:29:59;1.30;94.10
82231;DHT22;71832;45.138;9.816;2023-12-07T03:32:28;1.30;94.00
82231;DHT22;71832;45.138;9.816;2023-12-07T03:34:56;1.30;93.90
82231;DHT22;71832;45.138;9.816;2023-12-07T03:37:25;1.30;93.60
82231;DHT22;71832;45.138;9.816;2023-12-07T03:39:54;1.30;93.40
82231;DHT22;71832;45.138;9.816;2023-12-07T03:42:22;1.20;93.40
82231;DHT22;71832;45.138;9.816;2023-12-07T03:44:51;1.20;93.20
82231;DHT22;71832;45.138;9.816;2023-12-07T03:47:20;1.00;93.30
82231;DHT22;71832;45.138;9.816;2023-12-07T03:49:48;1.00;93.50
82231;DHT22;71832;45.138;9.816;2023-12-07T03:52:17;1.00;93.60
82231;DHT22;71832;45.138;9.816;2023-12-07T03:54:46;0.90;94.00
82231;DHT22;71832;45.138;9.816;2023-12-07T03:57:15;0.90;94.20
82231;DHT22;71832;45.138;9.816;2023-12-07T03:59:43;0.80;94.50
82231;DHT22;71832;45.138;9.816;2023-12-07T04:02:13;0.80;94.80
82231;DHT22;71832;45.138;9.816;2023-12-07T04:04:42;0.80;94.80
82231;DHT22;71832;45.138;9.816;2023-12-07T04:07:11;0.80;94.80
82231;DHT22;71832;45.138;9.816;2023-12-07T04:09:40;0.80;94.50
82231;DHT22;71832;45.138;9.816;2023-12-07T04:12:08;0.80;94.60
82231;DHT22;71832;45.138;9.816;2023-12-07T04:14:37;0.80;94.20
82231;DHT22;71832;45.138;9.816;2023-12-07T04:17:06;0.80;94.30
82231;DHT22;71832;45.138;9.816;2023-12-07T04:19:35;0.70;94.40
82231;DHT22;71832;45.138;9.816;2023-12-07T04:22:04;0.70;94.50
82231;DHT22;71832;45.138;9.816;2023-12-07T04:24:32;0.60;95.00
82231;DHT22;71832;45.138;9.816;2023-12-07T04:27:01;0.60;95.60
82231;DHT22;71832;45.138;9.816;2023-12-07T04:29:30;0.50;96.00
82231;DHT22;71832;45.138;9.816;2023-12-07T04:31:58;0.50;95.90
82231;DHT22;71832;45.138;9.816;2023-12-07T04:34:27;0.50;95.70
82231;DHT22;71832;45.138;9.816;2023-12-07T04:36:56;0.50;96.00
82231;DHT22;71832;45.138;9.816;2023-12-07T04:39:25;0.60;95.90
82231;DHT22;71832;45.138;9.816;2023-12-07T04:41:53;0.60;95.80
82231;DHT22;71832;45.138;9.816;2023-12-07T04:44:22;0.60;95.70
82231;DHT22;71832;45.138;9.816;2023-12-07T04:46:56;0.60;95.40
82231;DHT22;71832;45.138;9.816;2023-12-07T04:49:53;0.60;95.20
82231;DHT22;71832;45.138;9.816;2023-12-07T04:52:21;0.60;95.30
82231;DHT22;71832;45.138;9.816;2023-12-07T04:54:49;0.80;95.30
82231;DHT22;71832;45.138;9.816;2023-12-07T04:57:17;0.80;95.30
82231;DHT22;71832;45.138;9.816;2023-12-07T04:59:44;0.80;95.20
82231;DHT22;71832;45.138;9.816;2023-12-07T05:02:15;0.80;94.60
82231;DHT22;71832;45.138;9.816;2023-12-07T05:04:43;1.00;94.10
82231;DHT22;71832;45.138;9.816;2023-12-07T05:07:12;1.00;93.60
82231;DHT22;71832;45.138;9.816;2023-12-07T05:09:40;1.00;93.90
82231;DHT22;71832;45.138;9.816;2023-12-07T05:12:09;1.00;94.00
82231;DHT22;71832;45.138;9.816;2023-12-07T05:14:37;1.00;93.90
82231;DHT22;71832;45.138;9.816;2023-12-07T05:17:04;1.00;94.10
82231;DHT22;71832;45.138;9.816;2023-12-07T05:19:32;1.00;93.60
82231;DHT22;71832;45.138;9.816;2023-12-07T05:21:59;1.00;93.00
82231;DHT22;71832;45.138;9.816;2023-12-07T05:24:29;1.00;93.60
82231;DHT22;71832;45.138;9.816;2023-12-07T05:27:01;1.00;94.00
82231;DHT22;71832;45.138;9.816;2023-12-07T05:29:31;1.00;94.00
82231;DHT22;71832;45.138;9.816;2023-12-07T05:31:59;0.90;93.90
82231;DHT22;71832;45.138;9.816;2023-12-07T05:34:27;0.90;93.80
82231;DHT22;71832;45.138;9.816;2023-12-07T05:36:55;0.90;93.80
82231;DHT22;71832;45.138;9.816;2023-12-07T05:39:23;0.90;93.80
82231;DHT22;71832;45.138;9.816;2023-12-07T05:41:53;0.90;93.90
82231;DHT22;71832;45.138;9.816;2023-12-07T05:44:21;0.90;94.10
82231;DHT22;71832;45.138;9.816;2023-12-07T05:46:50;0.90;93.70
82231;DHT22;71832;45.138;9.816;2023-12-07T05:49:18;0.80;93.30
82231;DHT22;71832;45.138;9.816;2023-12-07T05:51:49;0.80;92.90
82231;DHT22;71832;45.138;9.816;2023-12-07T05:54:20;0.80;93.30
82231;DHT22;71832;45.138;9.816;2023-12-07T05:56:49;0.80;93.60
82231;DHT22;71832;45.138;9.816;2023-12-07T05:59:18;0.70;93.60
82231;DHT22;71832;45.138;9.816;2023-12-07T06:01:47;0.60;93.00
82231;DHT22;71832;45.138;9.816;2023-12-07T06:04:15;0.60;93.40
82231;DHT22;71832;45.138;9.816;2023-12-07T06:06:44;0.60;93.40
82231;DHT22;71832;45.138;9.816;2023-12-07T06:09:12;0.60;93.70
82231;DHT22;71832;45.138;9.816;2023-12-07T06:11:41;0.50;94.20
82231;DHT22;71832;45.138;9.816;2023-12-07T06:14:10;0.60;94.70
82231;DHT22;71832;45.138;9.816;2023-12-07T06:16:38;0.60;94.80
82231;DHT22;71832;45.138;9.816;2023-12-07T06:19:07;0.60;94.60
82231;DHT22;71832;45.138;9.816;2023-12-07T06:21:36;0.60;94.10
82231;DHT22;71832;45.138;9.816;2023-12-07T06:24:05;0.60;93.60
82231;DHT22;71832;45.138;9.816;2023-12-07T06:26:34;0.50;93.90
82231;DHT22;71832;45.138;9.816;2023-12-07T06:29:03;0.50;94.00
82231;DHT22;71832;45.138;9.816;2023-12-07T06:31:31;0.50;93.90
82231;DHT22;71832;45.138;9.816;2023-12-07T06:33:59;0.40;94.40
82231;DHT22;71832;45.138;9.816;2023-12-07T06:36:27;0.40;94.40
82231;DHT22;71832;45.138;9.816;2023-12-07T06:38:56;0.40;94.30
82231;DHT22;71832;45.138;9.816;2023-12-07T06:41:25;0.40;94.20
82231;DHT22;71832;45.138;9.816;2023-12-07T06:43:52;0.30;94.20
82231;DHT22;71832;45.138;9.816;2023-12-07T06:46:21;0.30;94.20
82231;DHT22;71832;45.138;9.816;2023-12-07T06:48:49;0.20;94.50
82231;DHT22;71832;45.138;9.816;2023-12-07T06:51:17;0.20;94.40
82231;DHT22;71832;45.138;9.816;2023-12-07T06:53:45;0.20;94.10
82231;DHT22;71832;45.138;9.816;2023-12-07T06:56:14;0.20;94.70
82231;DHT22;71832;45.138;9.816;2023-12-07T06:58:43;0.20;95.20
82231;DHT22;71832;45.138;9.816;2023-12-07T07:01:13;0.10;95.20
82231;DHT22;71832;45.138;9.816;2023-12-07T07:03:41;0.20;95.00
82231;DHT22;71832;45.138;9.816;2023-12-07T07:06:10;0.20;95.10
82231;DHT22;71832;45.138;9.816;2023-12-07T07:08:39;0.20;94.90
82231;DHT22;71832;45.138;9.816;2023-12-07T07:11:14;0.20;94.60
82231;DHT22;71832;45.138;9.816;2023-12-07T07:13:43;0.30;94.40
82231;DHT22;71832;45.138;9.816;2023-12-07T07:16:11;0.30;94.10
82231;DHT22;71832;45.138;9.816;2023-12-07T07:18:40;0.30;94.00
82231;DHT22;71832;45.138;9.816;2023-12-07T07:21:08;0.40;94.50
82231;DHT22;71832;45.138;9.816;2023-12-07T07:23:37;0.40;94.90
82231;DHT22;71832;45.138;9.816;2023-12-07T07:26:06;0.50;95.00
82231;DHT22;71832;45.138;9.816;2023-12-07T07:28:36;0.50;94.50
82231;DHT22;71832;45.138;9.816;2023-12-07T07:31:03;0.60;94.20
82231;DHT22;71832;45.138;9.816;2023-12-07T07:33:32;0.50;94.40
82231;DHT22;71832;45.138;9.816;2023-12-07T07:36:00;0.50;94.40
82231;DHT22;71832;45.138;9.816;2023-12-07T07:38:28;0.60;94.50
82231;DHT22;71832;45.138;9.816;2023-12-07T07:40:56;0.60;94.60
82231;DHT22;71832;45.138;9.816;2023-12-07T07:43:25;0.60;94.60
82231;DHT22;71832;45.138;9.816;2023-12-07T07:45:53;0.60;94.60
82231;DHT22;71832;45.138;9.816;2023-12-07T07:48:23;0.60;94.80
82231;DHT22;71832;45.138;9.816;2023-12-07T07:50:52;0.70;94.70
82231;DHT22;71832;45.138;9.816;2023-12-07T07:53:20;0.70;94.70
82231;DHT22;71832;45.138;9.816;2023-12-07T07:55:47;0.70;94.90
82231;DHT22;71832;45.138;9.816;2023-12-07T07:58:14;0.70;94.90
82231;DHT22;71832;45.138;9.816;2023-12-07T08:00:42;0.80;95.30
82231;DHT22;71832;45.138;9.816;2023-12-07T08:03:13;0.80;95.30
82231;DHT22;71832;45.138;9.816;2023-12-07T08:05:41;0.80;95.60
82231;DHT22;71832;45.138;9.816;2023-12-07T08:08:08;0.80;96.00
82231;DHT22;71832;45.138;9.816;2023-12-07T08:10:37;0.80;96.20
82231;DHT22;71832;45.138;9.816;2023-12-07T08:13:06;0.80;96.70
82231;DHT22;71832;45.138;9.816;2023-12-07T08:15:35;0.80;97.00
82231;DHT22;71832;45.138;9.816;2023-12-07T08:18:03;1.00;96.80
82231;DHT22;71832;45.138;9.816;2023-12-07T08:20:32;1.00;96.60
82231;DHT22;71832;45.138;9.816;2023-12-07T08:22:59;1.00;96.50
82231;DHT22;71832;45.138;9.816;2023-12-07T08:25:28;1.10;96.00
82231;DHT22;71832;45.138;9.816;2023-12-07T08:27:55;1.20;95.70
82231;DHT22;71832;45.138;9.816;2023-12-07T08:30:23;1.30;95.50
82231;DHT22;71832;45.138;9.816;2023-12-07T08:32:51;1.40;95.30
82231;DHT22;71832;45.138;9.816;2023-12-07T08:35:18;1.40;95.00
82231;DHT22;71832;45.138;9.816;2023-12-07T08:37:46;1.40;94.50
82231;DHT22;71832;45.138;9.816;2023-12-07T08:40:15;1.50;94.10
82231;DHT22;71832;45.138;9.816;2023-12-07T08:42:46;1.50;93.80
82231;DHT22;71832;45.138;9.816;2023-12-07T08:45:14;1.60;93.60
82231;DHT22;71832;45.138;9.816;2023-12-07T08:47:43;1.60;94.40
82231;DHT22;71832;45.138;9.816;2023-12-07T08:50:12;1.60;94.80
82231;DHT22;71832;45.138;9.816;2023-12-07T08:52:40;1.60;95.20
82231;DHT22;71832;45.138;9.816;2023-12-07T08:55:08;1.70;95.10
82231;DHT22;71832;45.138;9.816;2023-12-07T08:57:36;1.80;95.00
82231;DHT22;71832;45.138;9.816;2023-12-07T09:00:05;1.80;95.00
82231;DHT22;71832;45.138;9.816;2023-12-07T09:02:34;1.80;95.20
82231;DHT22;71832;45.138;9.816;2023-12-07T09:05:02;1.90;95.00
82231;DHT22;71832;45.138;9.816;2023-12-07T09:07:31;1.90;94.80
82231;DHT22;71832;45.138;9.816;2023-12-07T09:09:59;2.00;94.70
82231;DHT22;71832;45.138;9.816;2023-12-07T09:12:27;2.00;94.50
82231;DHT22;71832;45.138;9.816;2023-12-07T09:14:56;2.10;94.10
82231;DHT22;71832;45.138;9.816;2023-12-07T09:17:24;2.10;93.40
82231;DHT22;71832;45.138;9.816;2023-12-07T09:19:52;2.20;93.70
82231;DHT22;71832;45.138;9.816;2023-12-07T09:22:20;2.20;94.90
82231;DHT22;71832;45.138;9.816;2023-12-07T09:24:48;2.20;95.40
82231;DHT22;71832;45.138;9.816;2023-12-07T09:27:15;2.30;95.60
82231;DHT22;71832;45.138;9.816;2023-12-07T09:29:43;2.40;95.50
82231;DHT22;71832;45.138;9.816;2023-12-07T09:32:11;2.40;95.10
82231;DHT22;71832;45.138;9.816;2023-12-07T09:34:40;2.50;94.90
82231;DHT22;71832;45.138;9.816;2023-12-07T09:37:09;2.50;95.50
82231;DHT22;71832;45.138;9.816;2023-12-07T09:39:38;2.50;95.30
82231;DHT22;71832;45.138;9.816;2023-12-07T09:42:05;2.50;94.60
82231;DHT22;71832;45.138;9.816;2023-12-07T09:44:36;2.60;94.10
82231;DHT22;71832;45.138;9.816;2023-12-07T09:47:04;2.70;93.60
82231;DHT22;71832;45.138;9.816;2023-12-07T09:49:33;2.70;93.20
82231;DHT22;71832;45.138;9.816;2023-12-07T09:52:01;2.80;93.10
82231;DHT22;71832;45.138;9.816;2023-12-07T09:54:31;2.80;93.20
82231;DHT22;71832;45.138;9.816;2023-12-07T09:56:59;2.80;94.40
82231;DHT22;71832;45.138;9.816;2023-12-07T09:59:26;2.70;94.70
82231;DHT22;71832;45.138;9.816;2023-12-07T10:01:54;2.70;95.00
82231;DHT22;71832;45.138;9.816;2023-12-07T10:04:22;2.70;95.20
82231;DHT22;71832;45.138;9.816;2023-12-07T10:06:53;2.70;95.10
82231;DHT22;71832;45.138;9.816;2023-12-07T10:09:24;2.70;95.40
82231;DHT22;71832;45.138;9.816;2023-12-07T10:12:03;2.70;95.90
82231;DHT22;71832;45.138;9.816;2023-12-07T10:17:53;2.80;95.50
82231;DHT22;71832;45.138;9.816;2023-12-07T10:20:23;2.80;96.00
82231;DHT22;71832;45.138;9.816;2023-12-07T10:23:10;2.90;96.60
82231;DHT22;71832;45.138;9.816;2023-12-07T10:25:39;3.10;95.20
82231;DHT22;71832;45.138;9.816;2023-12-07T10:28:09;3.10;94.10
82231;DHT22;71832;45.138;9.816;2023-12-07T10:30:40;3.30;93.30
82231;DHT22;71832;45.138;9.816;2023-12-07T10:33:10;3.30;92.20
82231;DHT22;71832;45.138;9.816;2023-12-07T10:35:40;3.40;91.20
82231;DHT22;71832;45.138;9.816;2023-12-07T10:38:09;3.50;91.80
82231;DHT22;71832;45.138;9.816;2023-12-07T10:40:37;3.50;92.60
82231;DHT22;71832;45.138;9.816;2023-12-07T10:43:09;3.60;92.50
82231;DHT22;71832;45.138;9.816;2023-12-07T10:45:37;3.60;91.60
82231;DHT22;71832;45.138;9.816;2023-12-07T10:48:08;3.70;91.00
82231;DHT22;71832;45.138;9.816;2023-12-07T10:50:41;3.80;90.30
82231;DHT22;71832;45.138;9.816;2023-12-07T10:53:44;3.90;90.10
82231;DHT22;71832;45.138;9.816;2023-12-07T10:56:14;3.90;91.00
82231;DHT22;71832;45.138;9.816;2023-12-07T10:58:44;4.00;90.50
82231;DHT22;71832;45.138;9.816;2023-12-07T11:01:12;4.10;89.50
82231;DHT22;71832;45.138;9.816;2023-12-07T11:03:42;4.10;90.40
82231;DHT22;71832;45.138;9.816;2023-12-07T11:06:11;4.20;89.50
82231;DHT22;71832;45.138;9.816;2023-12-07T11:08:43;4.20;89.60
82231;DHT22;71832;45.138;9.816;2023-12-07T11:11:21;4.30;88.80
82231;DHT22;71832;45.138;9.816;2023-12-07T11:14:11;4.30;87.60
82231;DHT22;71832;45.138;9.816;2023-12-07T11:16:45;4.40;87.60
82231;DHT22;71832;45.138;9.816;2023-12-07T11:22:06;4.50;87.20
82231;DHT22;71832;45.138;9.816;2023-12-07T11:24:35;4.50;88.20
82231;DHT22;71832;45.138;9.816;2023-12-07T11:27:04;4.50;89.10
82231;DHT22;71832;45.138;9.816;2023-12-07T11:29:33;4.70;88.70
82231;DHT22;71832;45.138;9.816;2023-12-07T11:32:04;4.70;88.60
82231;DHT22;71832;45.138;9.816;2023-12-07T11:34:36;4.70;88.80
82231;DHT22;71832;45.138;9.816;2023-12-07T11:37:06;4.80;88.20
82231;DHT22;71832;45.138;9.816;2023-12-07T11:39:36;4.90;87.90
82231;DHT22;71832;45.138;9.816;2023-12-07T11:42:11;4.90;88.00
82231;DHT22;71832;45.138;9.816;2023-12-07T11:44:42;4.90;87.70
82231;DHT22;71832;45.138;9.816;2023-12-07T11:47:18;5.00;88.10
82231;DHT22;71832;45.138;9.816;2023-12-07T11:49:48;5.00;86.80
82231;DHT22;71832;45.138;9.816;2023-12-07T11:52:19;5.10;87.00
82231;DHT22;71832;45.138;9.816;2023-12-07T11:54:49;5.10;86.80
82231;DHT22;71832;45.138;9.816;2023-12-07T11:57:18;5.20;87.80
82231;DHT22;71832;45.138;9.816;2023-12-07T11:59:45;5.30;89.20
82231;DHT22;71832;45.138;9.816;2023-12-07T12:02:14;5.30;88.60
82231;DHT22;71832;45.138;9.816;2023-12-07T12:04:42;5.30;87.60
82231;DHT22;71832;45.138;9.816;2023-12-07T12:07:10;5.50;88.00
82231;DHT22;71832;45.138;9.816;2023-12-07T12:09:37;5.50;88.40
82231;DHT22;71832;45.138;9.816;2023-12-07T12:12:06;5.50;87.60
82231;DHT22;71832;45.138;9.816;2023-12-07T12:14:34;5.60;88.80
82231;DHT22;71832;45.138;9.816;2023-12-07T12:17:02;5.60;86.00
82231;DHT22;71832;45.138;9.816;2023-12-07T12:19:33;5.60;86.50
82231;DHT22;71832;45.138;9.816;2023-12-07T12:22:04;5.60;86.00
82231;DHT22;71832;45.138;9.816;2023-12-07T12:24:34;5.60;87.60
82231;DHT22;71832;45.138;9.816;2023-12-07T12:27:04;5.70;87.00
82231;DHT22;71832;45.138;9.816;2023-12-07T12:29:33;5.70;87.40
82231;DHT22;71832;45.138;9.816;2023-12-07T12:32:03;5.70;87.60
82231;DHT22;71832;45.138;9.816;2023-12-07T12:34:34;5.70;88.10
82231;DHT22;71832;45.138;9.816;2023-12-07T12:37:03;5.80;88.00
82231;DHT22;71832;45.138;9.816;2023-12-07T12:39:32;5.80;88.00
82231;DHT22;71832;45.138;9.816;2023-12-07T12:42:02;5.80;88.00
82231;DHT22;71832;45.138;9.816;2023-12-07T12:44:32;5.90;87.50
82231;DHT22;71832;45.138;9.816;2023-12-07T12:47:00;5.90;86.70
82231;DHT22;71832;45.138;9.816;2023-12-07T12:49:38;5.90;85.00
82231;DHT22;71832;45.138;9.816;2023-12-07T12:52:10;5.90;85.60
82231;DHT22;71832;45.138;9.816;2023-12-07T12:54:42;5.90;85.70
82231;DHT22;71832;45.138;9.816;2023-12-07T12:57:11;6.00;85.20
82231;DHT22;71832;45.138;9.816;2023-12-07T12:59:39;6.00;85.50
82231;DHT22;71832;45.138;9.816;2023-12-07T13:02:08;6.00;84.80
82231;DHT22;71832;45.138;9.816;2023-12-07T13:04:37;6.10;84.30
82231;DHT22;71832;45.138;9.816;2023-12-07T13:07:06;6.10;83.80
82231;DHT22;71832;45.138;9.816;2023-12-07T13:09:34;6.10;83.50
82231;DHT22;71832;45.138;9.816;2023-12-07T13:12:03;6.10;82.60
82231;DHT22;71832;45.138;9.816;2023-12-07T13:14:32;6.10;81.20
82231;DHT22;71832;45.138;9.816;2023-12-07T13:17:02;6.20;81.60
82231;DHT22;71832;45.138;9.816;2023-12-07T13:19:31;6.20;81.90
82231;DHT22;71832;45.138;9.816;2023-12-07T13:22:00;6.20;80.90
82231;DHT22;71832;45.138;9.816;2023-12-07T13:24:30;6.20;82.70
82231;DHT22;71832;45.138;9.816;2023-12-07T13:26:59;6.20;81.20
82231;DHT22;71832;45.138;9.816;2023-12-07T13:29:27;6.30;81.30
82231;DHT22;71832;45.138;9.816;2023-12-07T13:31:56;6.30;80.30
82231;DHT22;71832;45.138;9.816;2023-12-07T13:34:25;6.40;80.40
82231;DHT22;71832;45.138;9.816;2023-12-07T13:36:54;6.40;80.40
82231;DHT22;71832;45.138;9.816;2023-12-07T13:39:23;6.40;79.90
82231;DHT22;71832;45.138;9.816;2023-12-07T13:41:54;6.40;79.50
82231;DHT22;71832;45.138;9.816;2023-12-07T13:44:22;6.40;79.10
82231;DHT22;71832;45.138;9.816;2023-12-07T13:46:51;6.40;79.10
82231;DHT22;71832;45.138;9.816;2023-12-07T13:49:21;6.40;80.40
82231;DHT22;71832;45.138;9.816;2023-12-07T13:51:50;6.40;80.80
82231;DHT22;71832;45.138;9.816;2023-12-07T13:54:18;6.40;79.70
82231;DHT22;71832;45.138;9.816;2023-12-07T13:56:48;6.40;79.70
82231;DHT22;71832;45.138;9.816;2023-12-07T13:59:16;6.40;79.20
82231;DHT22;71832;45.138;9.816;2023-12-07T14:01:45;6.30;80.50
82231;DHT22;71832;45.138;9.816;2023-12-07T14:04:13;6.30;81.80
82231;DHT22;71832;45.138;9.816;2023-12-07T14:06:42;6.30;80.20
82231;DHT22;71832;45.138;9.816;2023-12-07T14:09:11;6.30;80.30
82231;DHT22;71832;45.138;9.816;2023-12-07T14:11:40;6.30;80.20
82231;DHT22;71832;45.138;9.816;2023-12-07T14:14:08;6.30;80.10
82231;DHT22;71832;45.138;9.816;2023-12-07T14:16:39;6.30;80.10
82231;DHT22;71832;45.138;9.816;2023-12-07T14:19:08;6.30;80.40
82231;DHT22;71832;45.138;9.816;2023-12-07T14:21:37;6.30;80.70
82231;DHT22;71832;45.138;9.816;2023-12-07T14:24:05;6.30;81.20
82231;DHT22;71832;45.138;9.816;2023-12-07T14:26:35;6.30;81.60
82231;DHT22;71832;45.138;9.816;2023-12-07T14:29:03;6.30;81.80
82231;DHT22;71832;45.138;9.816;2023-12-07T14:31:32;6.30;82.60
82231;DHT22;71832;45.138;9.816;2023-12-07T14:34:01;6.30;83.00
82231;DHT22;71832;45.138;9.816;2023-12-07T14:36:30;6.30;83.00
82231;DHT22;71832;45.138;9.816;2023-12-07T14:38:57;6.20;82.80
82231;DHT22;71832;45.138;9.816;2023-12-07T14:41:25;6.20;82.70
82231;DHT22;71832;45.138;9.816;2023-12-07T14:43:53;6.20;82.90
82231;DHT22;71832;45.138;9.816;2023-12-07T14:46:20;6.20;82.70
82231;DHT22;71832;45.138;9.816;2023-12-07T14:48:48;6.20;82.40
82231;DHT22;71832;45.138;9.816;2023-12-07T14:51:19;6.20;82.80
82231;DHT22;71832;45.138;9.816;2023-12-07T14:53:47;6.10;83.00
82231;DHT22;71832;45.138;9.816;2023-12-07T14:56:16;6.10;83.00
82231;DHT22;71832;45.138;9.816;2023-12-07T14:58:44;6.00;83.30
82231;DHT22;71832;45.138;9.816;2023-12-07T15:01:13;6.00;83.40
82231;DHT22;71832;45.138;9.816;2023-12-07T15:03:41;6.00;82.70
82231;DHT22;71832;45.138;9.816;2023-12-07T15:06:09;5.90;82.50
82231;DHT22;71832;45.138;9.816;2023-12-07T15:08:38;5.90;82.70
82231;DHT22;71832;45.138;9.816;2023-12-07T15:11:07;5.80;82.40
82231;DHT22;71832;45.138;9.816;2023-12-07T15:13:36;5.80;82.70
82231;DHT22;71832;45.138;9.816;2023-12-07T15:16:05;5.70;82.70
82231;DHT22;71832;45.138;9.816;2023-12-07T15:18:34;5.70;83.20
82231;DHT22;71832;45.138;9.816;2023-12-07T15:21:03;5.60;83.20
82231;DHT22;71832;45.138;9.816;2023-12-07T15:23:31;5.60;82.70
82231;DHT22;71832;45.138;9.816;2023-12-07T15:25:59;5.60;82.60
82231;DHT22;71832;45.138;9.816;2023-12-07T15:28:27;5.50;82.60
82231;DHT22;71832;45.138;9.816;2023-12-07T15:30:55;5.50;82.80
82231;DHT22;71832;45.138;9.816;2023-12-07T15:33:24;5.50;82.70
82231;DHT22;71832;45.138;9.816;2023-12-07T15:35:53;5.40;82.50
82231;DHT22;71832;45.138;9.816;2023-12-07T15:38:22;5.30;82.30
82231;DHT22;71832;45.138;9.816;2023-12-07T15:40:50;5.30;82.40
82231;DHT22;71832;45.138;9.816;2023-12-07T15:43:22;5.30;82.70
82231;DHT22;71832;45.138;9.816;2023-12-07T15:45:51;5.30;82.40
82231;DHT22;71832;45.138;9.816;2023-12-07T15:48:19;5.10;82.50
82231;DHT22;71832;45.138;9.816;2023-12-07T15:50:49;5.10;82.60
82231;DHT22;71832;45.138;9.816;2023-12-07T15:53:17;5.10;82.70
82231;DHT22;71832;45.138;9.816;2023-12-07T15:55:46;5.10;82.60
82231;DHT22;71832;45.138;9.816;2023-12-07T15:58:14;5.00;83.00
82231;DHT22;71832;45.138;9.816;2023-12-07T16:00:44;5.00;83.40
82231;DHT22;71832;45.138;9.816;2023-12-07T16:03:12;5.00;83.20
82231;DHT22;71832;45.138;9.816;2023-12-07T16:05:41;5.00;83.40
82231;DHT22;71832;45.138;9.816;2023-12-07T16:08:09;4.90;83.60